sensor_id;sensor_type;location;lat;lon;timestamp;P1;durP1;ratioP1;P2;durP2;ratioP2
72299;SDS011;60234;52.414;13.334;2022-07-22T00:01:29;8.53;;;3.80;;
72299;SDS011;60234;52.414;13.334;2022-07-22T00:03:54;6.87;;;3.43;;
72299;SDS011;60234;52.414;13.334;2022-07-22T00:06:20;9.70;;;3.80;;
72299;SDS011;60234;52.414;13.334;2022-07-22T00:08:45;7.37;;;3.43;;
72299;SDS011;60234;52.414;13.334;2022-07-22T00:11:11;7.43;;;3.40;;
72299;SDS011;60234;52.414;13.334;2022-07-22T00:13:36;7.40;;;3.60;;
72299;SDS011;60234;52.414;13.334;2022-07-22T00:16:02;7.37;;;3.93;;
72299;SDS011;60234;52.414;13.334;2022-07-22T00:18:27;7.75;;;4.22;;
72299;SDS011;60234;52.414;13.334;2022-07-22T00:20:54;8.13;;;3.90;;
72299;SDS011;60234;52.414;13.334;2022-07-22T00:23:20;7.72;;;3.80;;
72299;SDS011;60234;52.414;13.334;2022-07-22T00:25:45;7.83;;;3.67;;
72299;SDS011;60234;52.414;13.334;2022-07-22T00:28:10;8.63;;;4.10;;
72299;SDS011;60234;52.414;13.334;2022-07-22T00:30:36;7.83;;;4.13;;
72299;SDS011;60234;52.414;13.334;2022-07-22T00:33:01;7.97;;;3.57;;
72299;SDS011;60234;52.414;13.334;2022-07-22T00:35:27;7.53;;;4.00;;
72299;SDS011;60234;52.414;13.334;2022-07-22T00:37:53;9.30;;;4.50;;
72299;SDS011;60234;52.414;13.334;2022-07-22T00:40:18;8.02;;;3.67;;
72299;SDS011;60234;52.414;13.334;2022-07-22T00:42:43;9.97;;;3.90;;
72299;SDS011;60234;52.414;13.334;2022-07-22T00:45:09;6.63;;;3.60;;
72299;SDS011;60234;52.414;13.334;2022-07-22T00:47:35;9.35;;;3.72;;
72299;SDS011;60234;52.414;13.334;2022-07-22T00:50:01;8.07;;;3.43;;
72299;SDS011;60234;52.414;13.334;2022-07-22T00:52:26;9.10;;;4.07;;
72299;SDS011;60234;52.414;13.334;2022-07-22T00:54:52;10.13;;;4.43;;
72299;SDS011;60234;52.414;13.334;2022-07-22T00:57:17;9.13;;;4.10;;
72299;SDS011;60234;52.414;13.334;2022-07-22T00:59:43;8.60;;;3.80;;
72299;SDS011;60234;52.414;13.334;2022-07-22T01:02:09;7.32;;;3.40;;
72299;SDS011;60234;52.414;13.334;2022-07-22T01:04:34;9.63;;;3.57;;
72299;SDS011;60234;52.414;13.334;2022-07-22T01:07:00;8.43;;;3.80;;
72299;SDS011;60234;52.414;13.334;2022-07-22T01:09:26;8.83;;;3.87;;
72299;SDS011;60234;52.414;13.334;2022-07-22T01:11:51;7.37;;;3.57;;
72299;SDS011;60234;52.414;13.334;2022-07-22T01:14:16;7.00;;;3.00;;
72299;SDS011;60234;52.414;13.334;2022-07-22T01:16:42;8.15;;;3.35;;
72299;SDS011;60234;52.414;13.334;2022-07-22T01:19:07;7.97;;;3.27;;
72299;SDS011;60234;52.414;13.334;2022-07-22T01:21:32;7.67;;;3.20;;
72299;SDS011;60234;52.414;13.334;2022-07-22T01:23:58;6.80;;;3.40;;
72299;SDS011;60234;52.414;13.334;2022-07-22T01:26:24;7.82;;;3.30;;
72299;SDS011;60234;52.414;13.334;2022-07-22T01:28:49;6.60;;;3.07;;
72299;SDS011;60234;52.414;13.334;2022-07-22T01:31:15;7.93;;;3.50;;
72299;SDS011;60234;52.414;13.334;2022-07-22T01:33:40;7.87;;;3.53;;
72299;SDS011;60234;52.414;13.334;2022-07-22T01:36:07;6.95;;;2.92;;
72299;SDS011;60234;52.414;13.334;2022-07-22T01:38:32;7.07;;;3.17;;
72299;SDS011;60234;52.414;13.334;2022-07-22T01:40:58;6.90;;;3.08;;
72299;SDS011;60234;52.414;13.334;2022-07-22T01:43:23;7.47;;;3.43;;
72299;SDS011;60234;52.414;13.334;2022-07-22T01:45:50;6.85;;;3.15;;
72299;SDS011;60234;52.414;13.334;2022-07-22T01:48:17;6.13;;;3.00;;
72299;SDS011;60234;52.414;13.334;2022-07-22T01:50:43;7.25;;;2.85;;
72299;SDS011;60234;52.414;13.334;2022-07-22T01:53:09;6.60;;;2.78;;
72299;SDS011;60234;52.414;13.334;2022-07-22T01:55:35;6.53;;;3.10;;
72299;SDS011;60234;52.414;13.334;2022-07-22T01:58:00;6.73;;;3.10;;
72299;SDS011;60234;52.414;13.334;2022-07-22T02:00:26;8.93;;;3.40;;
72299;SDS011;60234;52.414;13.334;2022-07-22T02:02:51;7.57;;;2.97;;
72299;SDS011;60234;52.414;13.334;2022-07-22T02:05:17;6.45;;;2.80;;
72299;SDS011;60234;52.414;13.334;2022-07-22T02:07:43;6.33;;;2.60;;
72299;SDS011;60234;52.414;13.334;2022-07-22T02:10:08;6.38;;;2.80;;
72299;SDS011;60234;52.414;13.334;2022-07-22T02:12:33;7.17;;;2.87;;
72299;SDS011;60234;52.414;13.334;2022-07-22T02:14:59;5.70;;;2.60;;
72299;SDS011;60234;52.414;13.334;2022-07-22T02:17:25;5.67;;;2.77;;
72299;SDS011;60234;52.414;13.334;2022-07-22T02:19:50;6.32;;;2.70;;
72299;SDS011;60234;52.414;13.334;2022-07-22T02:22:16;6.93;;;3.00;;
72299;SDS011;60234;52.414;13.334;2022-07-22T02:24:41;6.45;;;2.97;;
72299;SDS011;60234;52.414;13.334;2022-07-22T02:27:07;6.37;;;3.10;;
72299;SDS011;60234;52.414;13.334;2022-07-22T02:29:32;6.67;;;3.10;;
72299;SDS011;60234;52.414;13.334;2022-07-22T02:31:58;6.78;;;2.90;;
72299;SDS011;60234;52.414;13.334;2022-07-22T02:34:23;6.73;;;3.00;;
72299;SDS011;60234;52.414;13.334;2022-07-22T02:36:49;7.97;;;3.73;;
72299;SDS011;60234;52.414;13.334;2022-07-22T02:39:14;6.82;;;2.60;;
72299;SDS011;60234;52.414;13.334;2022-07-22T02:41:39;6.63;;;3.03;;
72299;SDS011;60234;52.414;13.334;2022-07-22T02:44:05;9.23;;;3.20;;
72299;SDS011;60234;52.414;13.334;2022-07-22T02:46:30;8.93;;;3.93;;
72299;SDS011;60234;52.414;13.334;2022-07-22T02:48:56;6.90;;;3.10;;
72299;SDS011;60234;52.414;13.334;2022-07-22T02:51:21;7.05;;;3.38;;
72299;SDS011;60234;52.414;13.334;2022-07-22T02:53:47;7.77;;;3.47;;
72299;SDS011;60234;52.414;13.334;2022-07-22T02:56:13;8.27;;;3.85;;
72299;SDS011;60234;52.414;13.334;2022-07-22T02:58:39;7.63;;;3.70;;
72299;SDS011;60234;52.414;13.334;2022-07-22T03:01:04;7.95;;;2.92;;
72299;SDS011;60234;52.414;13.334;2022-07-22T03:03:30;7.93;;;3.50;;
72299;SDS011;60234;52.414;13.334;2022-07-22T03:05:55;8.73;;;3.33;;
72299;SDS011;60234;52.414;13.334;2022-07-22T03:08:20;6.72;;;3.25;;
72299;SDS011;60234;52.414;13.334;2022-07-22T03:10:46;7.77;;;3.47;;
72299;SDS011;60234;52.414;13.334;2022-07-22T03:13:11;7.77;;;3.53;;
72299;SDS011;60234;52.414;13.334;2022-07-22T03:15:37;9.70;;;3.67;;
72299;SDS011;60234;52.414;13.334;2022-07-22T03:18:02;7.83;;;3.60;;
72299;SDS011;60234;52.414;13.334;2022-07-22T03:20:27;8.88;;;3.50;;
72299;SDS011;60234;52.414;13.334;2022-07-22T03:22:53;8.37;;;3.50;;
72299;SDS011;60234;52.414;13.334;2022-07-22T03:25:18;7.60;;;2.93;;
72299;SDS011;60234;52.414;13.334;2022-07-22T03:27:44;7.47;;;3.28;;
72299;SDS011;60234;52.414;13.334;2022-07-22T03:30:10;8.13;;;3.40;;
72299;SDS011;60234;52.414;13.334;2022-07-22T03:32:36;9.43;;;3.57;;
72299;SDS011;60234;52.414;13.334;2022-07-22T03:35:01;8.40;;;3.72;;
72299;SDS011;60234;52.414;13.334;2022-07-22T03:37:27;7.63;;;3.60;;
72299;SDS011;60234;52.414;13.334;2022-07-22T03:39:52;8.23;;;3.90;;
72299;SDS011;60234;52.414;13.334;2022-07-22T03:42:17;10.00;;;3.97;;
72299;SDS011;60234;52.414;13.334;2022-07-22T03:44:43;7.43;;;3.40;;
72299;SDS011;60234;52.414;13.334;2022-07-22T03:47:08;8.17;;;4.10;;
72299;SDS011;60234;52.414;13.334;2022-07-22T03:49:34;8.10;;;3.85;;
72299;SDS011;60234;52.414;13.334;2022-07-22T03:51:59;9.40;;;4.10;;
72299;SDS011;60234;52.414;13.334;2022-07-22T03:54:25;8.20;;;3.80;;
72299;SDS011;60234;52.414;13.334;2022-07-22T03:56:50;8.30;;;3.75;;
72299;SDS011;60234;52.414;13.334;2022-07-22T03:59:16;9.00;;;4.13;;
72299;SDS011;60234;52.414;13.334;2022-07-22T04:01:42;11.32;;;4.50;;
72299;SDS011;60234;52.414;13.334;2022-07-22T04:04:08;9.57;;;4.63;;
72299;SDS011;60234;52.414;13.334;2022-07-22T04:06:33;8.50;;;4.20;;
72299;SDS011;60234;52.414;13.334;2022-07-22T04:08:58;8.83;;;4.00;;
72299;SDS011;60234;52.414;13.334;2022-07-22T04:11:24;10.50;;;4.60;;
72299;SDS011;60234;52.414;13.334;2022-07-22T04:13:49;10.40;;;4.57;;
72299;SDS011;60234;52.414;13.334;2022-07-22T04:16:15;9.32;;;4.28;;
72299;SDS011;60234;52.414;13.334;2022-07-22T04:18:40;9.40;;;3.97;;
72299;SDS011;60234;52.414;13.334;2022-07-22T04:21:06;9.20;;;4.27;;
72299;SDS011;60234;52.414;13.334;2022-07-22T04:23:31;10.10;;;5.00;;
72299;SDS011;60234;52.414;13.334;2022-07-22T04:25:56;10.87;;;4.67;;
72299;SDS011;60234;52.414;13.334;2022-07-22T04:28:22;9.93;;;4.30;;
72299;SDS011;60234;52.414;13.334;2022-07-22T04:30:47;9.67;;;4.50;;
72299;SDS011;60234;52.414;13.334;2022-07-22T04:33:12;9.83;;;4.77;;
72299;SDS011;60234;52.414;13.334;2022-07-22T04:35:38;8.33;;;4.23;;
72299;SDS011;60234;52.414;13.334;2022-07-22T04:38:03;9.87;;;4.23;;
72299;SDS011;60234;52.414;13.334;2022-07-22T04:40:29;9.45;;;4.22;;
72299;SDS011;60234;52.414;13.334;2022-07-22T04:42:54;12.20;;;5.47;;
72299;SDS011;60234;52.414;13.334;2022-07-22T04:45:20;9.93;;;4.53;;
72299;SDS011;60234;52.414;13.334;2022-07-22T04:47:45;9.93;;;4.53;;
72299;SDS011;60234;52.414;13.334;2022-07-22T04:50:10;9.38;;;4.68;;
72299;SDS011;60234;52.414;13.334;2022-07-22T04:52:36;10.10;;;4.57;;
72299;SDS011;60234;52.414;13.334;2022-07-22T04:55:01;10.90;;;4.83;;
72299;SDS011;60234;52.414;13.334;2022-07-22T04:57:27;8.73;;;4.40;;
72299;SDS011;60234;52.414;13.334;2022-07-22T04:59:53;8.60;;;4.10;;
72299;SDS011;60234;52.414;13.334;2022-07-22T05:02:18;9.98;;;4.45;;
72299;SDS011;60234;52.414;13.334;2022-07-22T05:04:44;8.93;;;4.47;;
72299;SDS011;60234;52.414;13.334;2022-07-22T05:07:09;9.67;;;4.77;;
72299;SDS011;60234;52.414;13.334;2022-07-22T05:09:35;10.38;;;4.78;;
72299;SDS011;60234;52.414;13.334;2022-07-22T05:12:01;9.83;;;4.73;;
72299;SDS011;60234;52.414;13.334;2022-07-22T05:14:26;9.50;;;4.33;;
72299;SDS011;60234;52.414;13.334;2022-07-22T05:16:51;10.73;;;4.50;;
72299;SDS011;60234;52.414;13.334;2022-07-22T05:19:17;9.97;;;4.60;;
72299;SDS011;60234;52.414;13.334;2022-07-22T05:21:42;9.20;;;4.50;;
72299;SDS011;60234;52.414;13.334;2022-07-22T05:24:07;9.03;;;4.53;;
72299;SDS011;60234;52.414;13.334;2022-07-22T05:26:33;12.00;;;5.10;;
72299;SDS011;60234;52.414;13.334;2022-07-22T05:28:58;7.93;;;4.40;;
72299;SDS011;60234;52.414;13.334;2022-07-22T05:31:23;10.27;;;4.73;;
72299;SDS011;60234;52.414;13.334;2022-07-22T05:33:49;9.33;;;4.47;;
72299;SDS011;60234;52.414;13.334;2022-07-22T05:36:14;10.07;;;4.50;;
72299;SDS011;60234;52.414;13.334;2022-07-22T05:38:40;10.67;;;5.27;;
72299;SDS011;60234;52.414;13.334;2022-07-22T05:41:05;9.80;;;4.80;;
72299;SDS011;60234;52.414;13.334;2022-07-22T05:43:30;8.90;;;4.87;;
72299;SDS011;60234;52.414;13.334;2022-07-22T05:45:56;11.10;;;4.70;;
72299;SDS011;60234;52.414;13.334;2022-07-22T05:48:21;9.53;;;4.90;;
72299;SDS011;60234;52.414;13.334;2022-07-22T05:50:47;10.45;;;4.88;;
72299;SDS011;60234;52.414;13.334;2022-07-22T05:53:12;11.13;;;5.20;;
72299;SDS011;60234;52.414;13.334;2022-07-22T05:55:38;12.30;;;5.53;;
72299;SDS011;60234;52.414;13.334;2022-07-22T05:58:03;10.00;;;5.23;;
72299;SDS011;60234;52.414;13.334;2022-07-22T06:00:29;9.77;;;4.77;;
72299;SDS011;60234;52.414;13.334;2022-07-22T06:02:54;10.90;;;4.93;;
72299;SDS011;60234;52.414;13.334;2022-07-22T06:05:19;13.30;;;5.37;;
72299;SDS011;60234;52.414;13.334;2022-07-22T06:07:45;10.18;;;5.07;;
72299;SDS011;60234;52.414;13.334;2022-07-22T06:10:11;10.13;;;5.40;;
72299;SDS011;60234;52.414;13.334;2022-07-22T06:12:36;11.73;;;5.33;;
72299;SDS011;60234;52.414;13.334;2022-07-22T06:15:02;9.77;;;4.85;;
72299;SDS011;60234;52.414;13.334;2022-07-22T06:17:28;9.57;;;4.73;;
72299;SDS011;60234;52.414;13.334;2022-07-22T06:19:53;9.73;;;4.93;;
72299;SDS011;60234;52.414;13.334;2022-07-22T06:22:18;14.18;;;5.63;;
72299;SDS011;60234;52.414;13.334;2022-07-22T06:24:44;10.13;;;4.93;;
72299;SDS011;60234;52.414;13.334;2022-07-22T06:27:10;9.67;;;5.03;;
72299;SDS011;60234;52.414;13.334;2022-07-22T06:29:35;10.30;;;5.10;;
72299;SDS011;60234;52.414;13.334;2022-07-22T06:32:01;9.52;;;4.57;;
72299;SDS011;60234;52.414;13.334;2022-07-22T06:34:27;10.77;;;5.43;;
72299;SDS011;60234;52.414;13.334;2022-07-22T06:36:52;10.37;;;4.87;;
72299;SDS011;60234;52.414;13.334;2022-07-22T06:39:18;9.48;;;4.82;;
72299;SDS011;60234;52.414;13.334;2022-07-22T06:41:43;10.57;;;5.30;;
72299;SDS011;60234;52.414;13.334;2022-07-22T06:44:09;11.03;;;5.43;;
72299;SDS011;60234;52.414;13.334;2022-07-22T06:46:34;11.07;;;5.28;;
72299;SDS011;60234;52.414;13.334;2022-07-22T06:48:59;10.97;;;4.57;;
72299;SDS011;60234;52.414;13.334;2022-07-22T06:51:25;8.97;;;4.20;;
72299;SDS011;60234;52.414;13.334;2022-07-22T06:53:50;8.70;;;4.77;;
72299;SDS011;60234;52.414;13.334;2022-07-22T06:56:15;8.23;;;4.73;;
72299;SDS011;60234;52.414;13.334;2022-07-22T06:58:41;8.70;;;4.27;;
72299;SDS011;60234;52.414;13.334;2022-07-22T07:01:06;7.90;;;4.22;;
72299;SDS011;60234;52.414;13.334;2022-07-22T07:03:31;8.57;;;4.50;;
72299;SDS011;60234;52.414;13.334;2022-07-22T07:05:57;9.60;;;5.03;;
72299;SDS011;60234;52.414;13.334;2022-07-22T07:08:22;8.73;;;4.30;;
72299;SDS011;60234;52.414;13.334;2022-07-22T07:10:48;8.38;;;4.38;;
72299;SDS011;60234;52.414;13.334;2022-07-22T07:13:13;8.43;;;3.93;;
72299;SDS011;60234;52.414;13.334;2022-07-22T07:15:39;8.73;;;4.60;;
72299;SDS011;60234;52.414;13.334;2022-07-22T07:18:04;8.87;;;4.63;;
72299;SDS011;60234;52.414;13.334;2022-07-22T07:20:29;8.00;;;4.00;;
72299;SDS011;60234;52.414;13.334;2022-07-22T07:22:55;8.38;;;4.35;;
72299;SDS011;60234;52.414;13.334;2022-07-22T07:25:20;8.40;;;4.30;;
72299;SDS011;60234;52.414;13.334;2022-07-22T07:27:46;9.93;;;4.47;;
72299;SDS011;60234;52.414;13.334;2022-07-22T07:30:11;8.17;;;3.97;;
72299;SDS011;60234;52.414;13.334;2022-07-22T07:32:37;9.63;;;3.95;;
72299;SDS011;60234;52.414;13.334;2022-07-22T07:35:03;8.75;;;3.53;;
72299;SDS011;60234;52.414;13.334;2022-07-22T07:37:30;7.33;;;3.37;;
72299;SDS011;60234;52.414;13.334;2022-07-22T07:39:56;7.50;;;3.50;;
72299;SDS011;60234;52.414;13.334;2022-07-22T07:42:21;7.30;;;3.37;;
72299;SDS011;60234;52.414;13.334;2022-07-22T07:44:47;7.88;;;3.72;;
72299;SDS011;60234;52.414;13.334;2022-07-22T07:47:12;6.73;;;3.30;;
72299;SDS011;60234;52.414;13.334;2022-07-22T07:49:42;6.75;;;3.55;;
72299;SDS011;60234;52.414;13.334;2022-07-22T07:52:11;7.07;;;3.63;;
72299;SDS011;60234;52.414;13.334;2022-07-22T07:54:37;7.47;;;3.63;;
72299;SDS011;60234;52.414;13.334;2022-07-22T07:57:04;6.65;;;2.92;;
72299;SDS011;60234;52.414;13.334;2022-07-22T07:59:30;7.63;;;3.70;;
72299;SDS011;60234;52.414;13.334;2022-07-22T08:01:56;6.90;;;3.50;;
72299;SDS011;60234;52.414;13.334;2022-07-22T08:04:21;6.87;;;3.53;;
72299;SDS011;60234;52.414;13.334;2022-07-22T08:06:46;6.70;;;3.30;;
72299;SDS011;60234;52.414;13.334;2022-07-22T08:09:12;5.80;;;3.10;;
72299;SDS011;60234;52.414;13.334;2022-07-22T08:11:37;6.50;;;3.30;;
72299;SDS011;60234;52.414;13.334;2022-07-22T08:14:02;7.23;;;3.40;;
72299;SDS011;60234;52.414;13.334;2022-07-22T08:16:28;5.60;;;3.00;;
72299;SDS011;60234;52.414;13.334;2022-07-22T08:18:53;6.20;;;3.00;;
72299;SDS011;60234;52.414;13.334;2022-07-22T08:21:18;6.10;;;3.20;;
72299;SDS011;60234;52.414;13.334;2022-07-22T08:23:44;6.35;;;3.05;;
72299;SDS011;60234;52.414;13.334;2022-07-22T08:26:09;7.00;;;3.10;;
72299;SDS011;60234;52.414;13.334;2022-07-22T08:28:35;6.60;;;2.83;;
72299;SDS011;60234;52.414;13.334;2022-07-22T08:31:00;5.87;;;2.97;;
72299;SDS011;60234;52.414;13.334;2022-07-22T08:33:26;6.32;;;3.00;;
72299;SDS011;60234;52.414;13.334;2022-07-22T08:35:51;6.47;;;3.30;;
72299;SDS011;60234;52.414;13.334;2022-07-22T08:38:16;6.63;;;2.93;;
72299;SDS011;60234;52.414;13.334;2022-07-22T08:40:42;7.00;;;3.20;;
72299;SDS011;60234;52.414;13.334;2022-07-22T08:43:07;6.57;;;3.38;;
72299;SDS011;60234;52.414;13.334;2022-07-22T08:45:33;5.47;;;2.67;;
72299;SDS011;60234;52.414;13.334;2022-07-22T08:47:59;6.23;;;3.07;;
72299;SDS011;60234;52.414;13.334;2022-07-22T08:50:28;7.87;;;2.93;;
72299;SDS011;60234;52.414;13.334;2022-07-22T08:52:55;7.35;;;3.13;;
72299;SDS011;60234;52.414;13.334;2022-07-22T08:55:21;5.68;;;2.90;;
72299;SDS011;60234;52.414;13.334;2022-07-22T08:57:47;5.33;;;2.90;;
72299;SDS011;60234;52.414;13.334;2022-07-22T09:00:15;5.78;;;3.00;;
72299;SDS011;60234;52.414;13.334;2022-07-22T09:02:42;7.07;;;3.08;;
72299;SDS011;60234;52.414;13.334;2022-07-22T09:05:09;6.37;;;2.93;;
72299;SDS011;60234;52.414;13.334;2022-07-22T09:07:36;5.43;;;2.70;;
72299;SDS011;60234;52.414;13.334;2022-07-22T09:10:05;5.78;;;2.70;;
72299;SDS011;60234;52.414;13.334;2022-07-22T09:12:31;6.50;;;2.90;;
72299;SDS011;60234;52.414;13.334;2022-07-22T09:14:57;7.50;;;2.57;;
72299;SDS011;60234;52.414;13.334;2022-07-22T09:17:25;6.30;;;2.58;;
72299;SDS011;60234;52.414;13.334;2022-07-22T09:20:03;5.68;;;3.22;;
72299;SDS011;60234;52.414;13.334;2022-07-22T09:22:43;5.27;;;2.60;;
72299;SDS011;60234;52.414;13.334;2022-07-22T09:25:16;6.82;;;3.00;;
72299;SDS011;60234;52.414;13.334;2022-07-22T09:27:42;6.00;;;2.97;;
72299;SDS011;60234;52.414;13.334;2022-07-22T09:30:10;6.10;;;3.00;;
72299;SDS011;60234;52.414;13.334;2022-07-22T09:32:41;6.35;;;2.90;;
72299;SDS011;60234;52.414;13.334;2022-07-22T09:35:07;6.65;;;2.70;;
72299;SDS011;60234;52.414;13.334;2022-07-22T09:37:33;5.30;;;2.70;;
72299;SDS011;60234;52.414;13.334;2022-07-22T09:40:15;6.07;;;2.60;;
72299;SDS011;60234;52.414;13.334;2022-07-22T09:42:44;6.25;;;2.60;;
72299;SDS011;60234;52.414;13.334;2022-07-22T09:45:10;4.67;;;2.27;;
72299;SDS011;60234;52.414;13.334;2022-07-22T09:47:36;5.32;;;2.55;;
72299;SDS011;60234;52.414;13.334;2022-07-22T09:50:01;5.67;;;2.60;;
72299;SDS011;60234;52.414;13.334;2022-07-22T09:52:26;5.00;;;2.53;;
72299;SDS011;60234;52.414;13.334;2022-07-22T09:54:52;5.77;;;2.40;;
72299;SDS011;60234;52.414;13.334;2022-07-22T09:57:18;6.28;;;2.70;;
72299;SDS011;60234;52.414;13.334;2022-07-22T09:59:44;5.57;;;2.50;;
72299;SDS011;60234;52.414;13.334;2022-07-22T10:02:09;5.53;;;2.50;;
72299;SDS011;60234;52.414;13.334;2022-07-22T10:04:35;5.13;;;2.42;;
72299;SDS011;60234;52.414;13.334;2022-07-22T10:07:03;4.73;;;2.20;;
72299;SDS011;60234;52.414;13.334;2022-07-22T10:09:29;5.35;;;2.15;;
72299;SDS011;60234;52.414;13.334;2022-07-22T10:11:55;6.85;;;2.55;;
72299;SDS011;60234;52.414;13.334;2022-07-22T10:14:21;5.57;;;2.42;;
72299;SDS011;60234;52.414;13.334;2022-07-22T10:16:46;6.60;;;2.67;;
72299;SDS011;60234;52.414;13.334;2022-07-22T10:19:12;4.65;;;2.25;;
72299;SDS011;60234;52.414;13.334;2022-07-22T10:21:38;4.47;;;2.20;;
72299;SDS011;60234;52.414;13.334;2022-07-22T10:24:13;4.67;;;2.23;;
72299;SDS011;60234;52.414;13.334;2022-07-22T10:26:47;4.80;;;2.15;;
72299;SDS011;60234;52.414;13.334;2022-07-22T10:34:41;4.38;;;2.00;;
72299;SDS011;60234;52.414;13.334;2022-07-22T10:37:44;5.03;;;2.10;;
72299;SDS011;60234;52.414;13.334;2022-07-22T10:40:15;4.53;;;2.20;;
72299;SDS011;60234;52.414;13.334;2022-07-22T10:43:03;5.10;;;2.40;;
72299;SDS011;60234;52.414;13.334;2022-07-22T10:45:42;5.90;;;2.17;;
72299;SDS011;60234;52.414;13.334;2022-07-22T10:48:12;8.85;;;2.45;;
72299;SDS011;60234;52.414;13.334;2022-07-22T10:50:40;4.68;;;2.20;;
72299;SDS011;60234;52.414;13.334;2022-07-22T10:53:09;5.80;;;2.60;;
72299;SDS011;60234;52.414;13.334;2022-07-22T10:55:57;5.60;;;2.43;;
72299;SDS011;60234;52.414;13.334;2022-07-22T11:01:05;4.88;;;2.30;;
72299;SDS011;60234;52.414;13.334;2022-07-22T11:03:33;4.53;;;2.20;;
72299;SDS011;60234;52.414;13.334;2022-07-22T11:08:53;6.20;;;2.23;;
72299;SDS011;60234;52.414;13.334;2022-07-22T11:11:34;5.47;;;2.38;;
72299;SDS011;60234;52.414;13.334;2022-07-22T11:14:10;5.53;;;2.53;;
72299;SDS011;60234;52.414;13.334;2022-07-22T11:16:40;5.20;;;2.38;;
72299;SDS011;60234;52.414;13.334;2022-07-22T11:19:06;5.30;;;2.67;;
72299;SDS011;60234;52.414;13.334;2022-07-22T11:21:33;4.97;;;2.67;;
72299;SDS011;60234;52.414;13.334;2022-07-22T11:24:00;5.57;;;2.28;;
72299;SDS011;60234;52.414;13.334;2022-07-22T11:26:41;6.05;;;2.60;;
72299;SDS011;60234;52.414;13.334;2022-07-22T11:29:24;5.57;;;2.42;;
72299;SDS011;60234;52.414;13.334;2022-07-22T11:31:53;6.57;;;2.63;;
72299;SDS011;60234;52.414;13.334;2022-07-22T11:34:19;7.73;;;2.47;;
72299;SDS011;60234;52.414;13.334;2022-07-22T11:36:48;5.20;;;2.60;;
72299;SDS011;60234;52.414;13.334;2022-07-22T11:39:17;5.57;;;2.42;;
72299;SDS011;60234;52.414;13.334;2022-07-22T11:41:44;4.55;;;2.30;;
72299;SDS011;60234;52.414;13.334;2022-07-22T11:44:10;5.70;;;2.30;;
72299;SDS011;60234;52.414;13.334;2022-07-22T11:46:36;5.00;;;2.40;;
72299;SDS011;60234;52.414;13.334;2022-07-22T11:49:06;5.05;;;2.47;;
72299;SDS011;60234;52.414;13.334;2022-07-22T11:51:33;5.85;;;2.28;;
72299;SDS011;60234;52.414;13.334;2022-07-22T11:53:59;4.72;;;2.10;;
72299;SDS011;60234;52.414;13.334;2022-07-22T11:56:25;4.47;;;2.13;;
72299;SDS011;60234;52.414;13.334;2022-07-22T11:58:51;5.00;;;2.30;;
72299;SDS011;60234;52.414;13.334;2022-07-22T12:01:19;5.40;;;2.20;;
72299;SDS011;60234;52.414;13.334;2022-07-22T12:03:47;6.23;;;2.20;;
72299;SDS011;60234;52.414;13.334;2022-07-22T12:06:15;4.28;;;1.88;;
72299;SDS011;60234;52.414;13.334;2022-07-22T12:08:42;4.50;;;1.90;;
72299;SDS011;60234;52.414;13.334;2022-07-22T12:11:14;5.22;;;2.10;;
72299;SDS011;60234;52.414;13.334;2022-07-22T12:13:41;4.05;;;1.92;;
72299;SDS011;60234;52.414;13.334;2022-07-22T12:16:18;4.67;;;2.10;;
72299;SDS011;60234;52.414;13.334;2022-07-22T12:18:50;3.70;;;1.70;;
72299;SDS011;60234;52.414;13.334;2022-07-22T12:21:16;3.70;;;1.70;;
72299;SDS011;60234;52.414;13.334;2022-07-22T12:23:42;4.47;;;1.87;;
72299;SDS011;60234;52.414;13.334;2022-07-22T12:26:18;3.67;;;1.60;;
72299;SDS011;60234;52.414;13.334;2022-07-22T12:28:43;3.38;;;1.50;;
72299;SDS011;60234;52.414;13.334;2022-07-22T12:31:09;2.90;;;1.30;;
72299;SDS011;60234;52.414;13.334;2022-07-22T12:33:34;3.27;;;1.40;;
72299;SDS011;60234;52.414;13.334;2022-07-22T12:36:09;3.40;;;1.38;;
72299;SDS011;60234;52.414;13.334;2022-07-22T12:38:34;3.07;;;1.40;;
72299;SDS011;60234;52.414;13.334;2022-07-22T12:43:49;2.92;;;1.38;;
72299;SDS011;60234;52.414;13.334;2022-07-22T12:46:15;3.45;;;1.45;;
72299;SDS011;60234;52.414;13.334;2022-07-22T12:48:52;3.65;;;1.50;;
72299;SDS011;60234;52.414;13.334;2022-07-22T12:51:18;3.70;;;1.40;;
72299;SDS011;60234;52.414;13.334;2022-07-22T12:53:44;3.83;;;1.70;;
72299;SDS011;60234;52.414;13.334;2022-07-22T12:56:10;3.87;;;1.60;;
72299;SDS011;60234;52.414;13.334;2022-07-22T12:58:36;3.95;;;1.60;;
72299;SDS011;60234;52.414;13.334;2022-07-22T13:01:05;3.08;;;1.45;;
72299;SDS011;60234;52.414;13.334;2022-07-22T13:03:31;3.90;;;1.58;;
72299;SDS011;60234;52.414;13.334;2022-07-22T13:05:58;3.10;;;1.47;;
72299;SDS011;60234;52.414;13.334;2022-07-22T13:08:25;2.95;;;1.38;;
72299;SDS011;60234;52.414;13.334;2022-07-22T13:10:52;3.10;;;1.48;;
72299;SDS011;60234;52.414;13.334;2022-07-22T13:13:18;3.40;;;1.48;;
72299;SDS011;60234;52.414;13.334;2022-07-22T13:15:45;7.47;;;1.60;;
72299;SDS011;60234;52.414;13.334;2022-07-22T13:18:11;4.87;;;1.63;;
72299;SDS011;60234;52.414;13.334;2022-07-22T13:20:36;4.22;;;1.55;;
72299;SDS011;60234;52.414;13.334;2022-07-22T13:23:02;4.03;;;1.33;;
72299;SDS011;60234;52.414;13.334;2022-07-22T13:25:27;2.67;;;1.40;;
72299;SDS011;60234;52.414;13.334;2022-07-22T13:27:54;2.83;;;1.30;;
72299;SDS011;60234;52.414;13.334;2022-07-22T13:30:20;3.03;;;1.27;;
72299;SDS011;60234;52.414;13.334;2022-07-22T13:32:45;3.10;;;1.23;;
72299;SDS011;60234;52.414;13.334;2022-07-22T13:35:11;5.30;;;1.50;;
72299;SDS011;60234;52.414;13.334;2022-07-22T13:37:36;3.00;;;1.20;;
72299;SDS011;60234;52.414;13.334;2022-07-22T13:40:02;4.00;;;1.30;;
72299;SDS011;60234;52.414;13.334;2022-07-22T13:42:28;10.40;;;1.48;;
72299;SDS011;60234;52.414;13.334;2022-07-22T13:44:54;2.72;;;1.10;;
72299;SDS011;60234;52.414;13.334;2022-07-22T13:47:20;3.47;;;1.40;;
72299;SDS011;60234;52.414;13.334;2022-07-22T13:49:45;5.63;;;1.20;;
72299;SDS011;60234;52.414;13.334;2022-07-22T13:52:11;3.22;;;1.25;;
72299;SDS011;60234;52.414;13.334;2022-07-22T13:54:37;2.47;;;1.10;;
72299;SDS011;60234;52.414;13.334;2022-07-22T13:57:03;5.30;;;1.30;;
72299;SDS011;60234;52.414;13.334;2022-07-22T13:59:29;4.43;;;1.50;;
72299;SDS011;60234;52.414;13.334;2022-07-22T14:01:55;2.93;;;1.07;;
72299;SDS011;60234;52.414;13.334;2022-07-22T14:04:20;7.47;;;1.40;;
72299;SDS011;60234;52.414;13.334;2022-07-22T14:06:46;5.47;;;1.30;;
72299;SDS011;60234;52.414;13.334;2022-07-22T14:09:11;2.40;;;1.00;;
72299;SDS011;60234;52.414;13.334;2022-07-22T14:11:36;2.83;;;1.10;;
72299;SDS011;60234;52.414;13.334;2022-07-22T14:14:02;2.67;;;1.07;;
72299;SDS011;60234;52.414;13.334;2022-07-22T14:16:27;3.23;;;1.20;;
72299;SDS011;60234;52.414;13.334;2022-07-22T14:18:59;3.90;;;1.20;;
72299;SDS011;60234;52.414;13.334;2022-07-22T14:21:40;1.90;;;0.90;;
72299;SDS011;60234;52.414;13.334;2022-07-22T14:24:07;4.70;;;1.20;;
72299;SDS011;60234;52.414;13.334;2022-07-22T14:26:33;2.43;;;1.00;;
72299;SDS011;60234;52.414;13.334;2022-07-22T14:28:59;3.72;;;1.40;;
72299;SDS011;60234;52.414;13.334;2022-07-22T14:31:25;2.60;;;0.98;;
72299;SDS011;60234;52.414;13.334;2022-07-22T14:33:51;3.53;;;1.40;;
72299;SDS011;60234;52.414;13.334;2022-07-22T14:36:16;2.60;;;1.10;;
72299;SDS011;60234;52.414;13.334;2022-07-22T14:38:42;2.90;;;1.20;;
72299;SDS011;60234;52.414;13.334;2022-07-22T14:41:08;2.50;;;1.08;;
72299;SDS011;60234;52.414;13.334;2022-07-22T14:43:34;2.60;;;1.00;;